createdAt,value
2023-03-26T00:08:12.427Z,3.20
2023-03-26T00:18:14.024Z,2.30
2023-03-26T00:28:17.215Z,3.00
2023-03-26T00:38:18.787Z,2.40
2023-03-26T00:48:28.961Z,2.80
2023-03-26T00:58:37.194Z,2.65
2023-03-26T01:08:46.799Z,2.10
2023-03-26T01:18:48.833Z,2.17
2023-03-26T01:28:56.710Z,2.33
2023-03-26T01:39:07.962Z,3.25
2023-03-26T01:49:13.406Z,2.50
2023-03-26T01:59:35.115Z,2.00
2023-03-26T02:09:47.006Z,3.45
2023-03-26T02:19:48.374Z,2.40
2023-03-26T02:41:12.398Z,2.70
2023-03-26T02:51:13.951Z,2.20
2023-03-26T03:01:18.082Z,2.30
2023-03-26T03:11:24.806Z,2.70
2023-03-26T03:21:29.045Z,3.17
2023-03-26T03:31:30.813Z,2.20
2023-03-26T03:41:32.414Z,2.67
2023-03-26T03:51:35.244Z,2.95
2023-03-26T04:01:36.660Z,3.20
2023-03-26T04:11:38.334Z,2.93
2023-03-26T04:21:42.879Z,3.20
2023-03-26T04:31:44.834Z,2.70
2023-03-26T04:41:47.013Z,2.93
2023-03-26T04:51:48.576Z,2.73
2023-03-26T05:01:49.930Z,2.53
2023-03-26T05:11:51.966Z,2.33
2023-03-26T05:21:53.526Z,1.97
2023-03-26T05:31:54.979Z,2.90
2023-03-26T05:41:56.456Z,2.53
2023-03-26T05:51:57.950Z,2.40
2023-03-26T06:01:59.724Z,2.72
2023-03-26T06:12:01.602Z,3.25
2023-03-26T06:22:03.694Z,2.40
2023-03-26T06:32:18.296Z,2.70
2023-03-26T06:42:20.634Z,2.42
2023-03-26T06:52:33.443Z,2.53
2023-03-26T07:02:35.946Z,2.20
2023-03-26T07:12:37.371Z,2.33
2023-03-26T07:22:39.073Z,2.67
2023-03-26T07:32:53.035Z,1.93
2023-03-26T07:43:19.445Z,3.17
2023-03-26T07:53:21.816Z,2.25
2023-03-26T08:03:39.051Z,2.30
2023-03-26T08:14:05.514Z,5.80
2023-03-26T08:24:11.381Z,3.10
2023-03-26T08:34:13.681Z,3.53
2023-03-26T08:44:27.303Z,2.97
2023-03-26T08:54:40.862Z,4.25
2023-03-26T09:05:20.314Z,3.17
2023-03-26T09:15:47.822Z,3.03
2023-03-26T09:25:58.375Z,3.20
2023-03-26T09:36:21.778Z,2.85
2023-03-26T09:47:05.455Z,2.77
2023-03-26T09:57:28.656Z,2.20
2023-03-26T10:08:08.735Z,2.28
2023-03-26T10:18:32.723Z,2.37
2023-03-26T10:28:43.362Z,2.40
2023-03-26T10:39:00.732Z,1.48
2023-03-26T10:49:43.726Z,0.90
2023-03-26T10:59:45.330Z,0.97
2023-03-26T11:10:08.205Z,1.30
2023-03-26T11:20:23.997Z,0.80
2023-03-26T11:30:36.535Z,0.90
2023-03-26T11:40:46.226Z,0.70
2023-03-26T11:50:55.496Z,2.10
2023-03-26T12:00:57.959Z,1.40
2023-03-26T12:11:04.033Z,0.60
2023-03-26T12:21:15.479Z,0.65
2023-03-26T12:31:18.902Z,0.90
2023-03-26T12:44:44.555Z,0.67
2023-03-26T12:51:59.448Z,1.00
2023-03-26T13:02:16.424Z,1.30
2023-03-26T13:12:38.211Z,2.80
2023-03-26T13:22:52.053Z,1.50
2023-03-26T13:33:04.557Z,1.10
2023-03-26T13:43:22.330Z,1.80
2023-03-26T13:53:28.647Z,2.30
2023-03-26T14:03:48.454Z,1.52
2023-03-26T14:13:57.176Z,1.60
2023-03-26T14:24:06.626Z,1.03
2023-03-26T14:34:40.653Z,1.25
2023-03-26T14:44:58.960Z,1.40
2023-03-26T14:55:07.561Z,1.30
2023-03-26T15:05:36.728Z,1.70
2023-03-26T15:16:02.987Z,1.92
2023-03-26T15:26:19.485Z,1.63
2023-03-26T15:36:30.341Z,2.27
2023-03-26T15:46:37.638Z,2.03
2023-03-26T15:56:52.949Z,3.23
2023-03-26T16:07:03.720Z,2.67
2023-03-26T16:17:11.609Z,3.25
2023-03-26T16:27:13.125Z,3.47
2023-03-26T16:37:36.453Z,2.93
2023-03-26T16:48:10.219Z,2.43
2023-03-26T16:58:33.584Z,2.70
2023-03-26T17:08:48.360Z,2.30
2023-03-26T17:18:55.772Z,2.27
2023-03-26T17:29:12.718Z,2.53
2023-03-26T17:39:43.306Z,1.10
2023-03-26T17:49:46.243Z,1.90
2023-03-26T17:59:50.501Z,1.75
2023-03-26T18:10:28.773Z,2.22
2023-03-26T18:20:32.345Z,2.00
2023-03-26T18:30:48.656Z,1.53
2023-03-26T18:40:53.622Z,1.88
2023-03-26T18:51:05.799Z,1.88
2023-03-26T19:01:20.243Z,1.95
2023-03-26T19:11:26.359Z,1.37
2023-03-26T19:21:28.129Z,1.53
2023-03-26T19:31:35.343Z,1.38
2023-03-26T19:41:41.226Z,1.93
2023-03-26T19:51:42.712Z,0.80
2023-03-26T20:01:44.143Z,1.38
2023-03-26T20:11:47.042Z,1.60
2023-03-26T20:21:48.843Z,2.73
2023-03-26T20:31:50.304Z,1.92
2023-03-26T20:41:53.852Z,1.27
2023-03-26T20:51:56.169Z,1.63
2023-03-26T21:01:59.038Z,1.43
2023-03-26T21:12:05.803Z,0.93
2023-03-26T21:22:34.309Z,1.63
2023-03-26T21:32:36.333Z,0.93
2023-03-26T21:42:38.053Z,1.55
2023-03-26T21:52:47.379Z,1.07
2023-03-26T22:03:05.625Z,1.30
2023-03-26T22:13:07.371Z,1.95
2023-03-26T22:23:09.525Z,1.48
2023-03-26T22:33:12.049Z,1.27
2023-03-26T22:43:13.464Z,1.10
2023-03-26T22:53:14.919Z,1.20
2023-03-26T23:03:16.399Z,1.30
2023-03-26T23:13:19.587Z,1.20
2023-03-26T23:23:23.990Z,1.30
2023-03-26T23:33:30.076Z,0.87
2023-03-26T23:43:32.154Z,1.40
2023-03-26T23:53:33.588Z,1.40
